Time;durP1;ratioP1;P1;durP2;ratioP2;P2;SDS_P1;SDS_P2;PMS_P1;PMS_P2;Temp;Humidity;BMP_temperature;BMP_pressure;BME280_temperature;BME280_humidity;BME280_pressure;Samples;Min_cycle;Max_cycle;Signal;HPM_P1;HPM_P2
2023/03/16 00:02:00;;;;;;;6.17;2.50;;;2.40;1.00;;;;;;5013800;28;20406;-78
2023/03/16 00:04:26;;;;;;;2.60;2.30;;;2.40;1.00;;;;;;5014006;28;20836;-78
2023/03/16 00:06:51;;;;;;;4.00;2.90;;;2.40;1.00;;;;;;5014181;28;20175;-78
2023/03/16 00:09:17;;;;;;;7.57;3.80;;;2.30;1.00;;;;;;5013135;28;20219;-79
2023/03/16 00:11:42;;;;;;;6.17;2.90;;;2.40;1.00;;;;;;5029156;28;20301;-78
2023/03/16 00:14:08;;;;;;;6.00;2.40;;;2.30;1.00;;;;;;5013156;28;20172;-78
2023/03/16 00:16:34;;;;;;;4.73;2.53;;;2.30;1.00;;;;;;5014229;28;20685;-78
2023/03/16 00:19:02;;;;;;;8.60;2.57;;;2.40;1.00;;;;;;5012679;28;20622;-78
2023/03/16 00:21:29;;;;;;;7.97;3.30;;;2.30;1.00;;;;;;5012303;28;21023;-78
2023/03/16 00:23:55;;;;;;;4.73;2.90;;;2.40;1.00;;;;;;5013871;28;20464;-78
2023/03/16 00:26:21;;;;;;;3.83;2.53;;;2.30;1.00;;;;;;5013685;28;20426;-78
2023/03/16 00:28:47;;;;;;;7.50;3.10;;;2.30;1.00;;;;;;5013718;28;20206;-78
2023/03/16 00:31:13;;;;;;;4.93;2.70;;;2.30;1.00;;;;;;5013290;28;20492;-78
2023/03/16 00:33:41;;;;;;;6.23;2.97;;;2.30;1.00;;;;;;5013257;28;20432;-79
2023/03/16 00:36:08;;;;;;;7.43;2.53;;;2.20;1.00;;;;;;5013676;28;20229;-77
2023/03/16 00:38:39;;;;;;;6.17;2.80;;;2.20;1.00;;;;;;5012725;28;20549;-78
2023/03/16 00:41:07;;;;;;;6.50;3.00;;;2.30;1.00;;;;;;5008805;28;20988;-77
2023/03/16 00:43:40;;;;;;;6.87;3.30;;;2.30;1.00;;;;;;5030477;28;20764;-78
2023/03/16 00:46:16;;;;;;;3.93;2.90;;;2.30;1.00;;;;;;5013229;28;20947;-77
2023/03/16 00:48:44;;;;;;;4.50;3.53;;;2.20;1.00;;;;;;5012575;28;20949;-77
2023/03/16 00:51:13;;;;;;;3.87;3.00;;;2.20;1.00;;;;;;4973497;28;20440;-78
2023/03/16 00:53:40;;;;;;;6.07;3.53;;;2.10;1.00;;;;;;5013402;28;20418;-77
2023/03/16 00:56:07;;;;;;;8.97;3.37;;;2.00;1.00;;;;;;5013208;28;20468;-77
2023/03/16 00:58:35;;;;;;;6.37;3.67;;;2.10;1.00;;;;;;5013286;28;20423;-78
2023/03/16 01:01:09;;;;;;;4.50;2.60;;;2.00;1.00;;;;;;5013096;28;20418;-77
2023/03/16 01:03:35;;;;;;;5.20;3.80;;;2.00;1.00;;;;;;5012845;28;20413;-77
2023/03/16 01:06:12;;;;;;;2.87;2.30;;;2.00;1.00;;;;;;5013117;28;20479;-77
2023/03/16 01:08:39;;;;;;;5.20;3.10;;;1.90;1.00;;;;;;5012219;28;20449;-79
2023/03/16 01:11:06;;;;;;;5.27;2.33;;;1.90;1.00;;;;;;5013077;28;20454;-78
2023/03/16 01:13:32;;;;;;;3.00;2.60;;;2.00;1.00;;;;;;5011960;28;20414;-77
2023/03/16 01:15:59;;;;;;;5.77;3.00;;;1.90;1.00;;;;;;5013018;28;20418;-77
2023/03/16 01:18:25;;;;;;;4.90;2.40;;;2.00;1.00;;;;;;5012626;28;20169;-77
2023/03/16 01:20:52;;;;;;;6.40;3.00;;;2.00;1.00;;;;;;5012829;28;20549;-77
2023/03/16 01:23:18;;;;;;;3.90;2.50;;;2.00;1.00;;;;;;5012727;28;20429;-77
2023/03/16 01:25:51;;;;;;;4.10;1.90;;;2.00;1.00;;;;;;5027710;28;20426;-77
2023/03/16 01:28:18;;;;;;;2.53;2.20;;;2.00;1.00;;;;;;5012704;28;20440;-77
2023/03/16 01:30:43;;;;;;;4.13;2.47;;;2.10;1.00;;;;;;5012986;28;20937;-77
2023/03/16 01:33:09;;;;;;;4.70;2.30;;;2.10;1.00;;;;;;5012473;28;20422;-77
2023/03/16 01:35:35;;;;;;;5.13;2.30;;;1.90;1.00;;;;;;5012895;28;20181;-77
2023/03/16 01:38:00;;;;;;;8.13;3.00;;;2.00;1.00;;;;;;5011825;28;20489;-77
2023/03/16 01:40:26;;;;;;;3.57;2.03;;;1.90;1.00;;;;;;5008213;28;20214;-77
2023/03/16 01:43:01;;;;;;;5.30;2.10;;;1.90;1.00;;;;;;4995455;28;20648;-77
2023/03/16 01:45:54;;;;;;;3.23;2.27;;;1.90;1.00;;;;;;5012039;28;20217;-77
2023/03/16 01:48:23;;;;;;;6.83;2.00;;;1.90;1.00;;;;;;5028369;28;20969;-76
2023/03/16 01:50:51;;;;;;;6.23;2.27;;;1.80;1.00;;;;;;5010800;28;20421;-77
2023/03/16 01:53:17;;;;;;;2.93;1.70;;;1.90;1.00;;;;;;5031906;28;20436;-77
2023/03/16 01:55:43;;;;;;;3.17;1.87;;;1.80;1.00;;;;;;4975759;28;20540;-77
2023/03/16 01:58:09;;;;;;;3.03;2.73;;;1.80;1.00;;;;;;5016471;28;21005;-77
2023/03/16 02:00:35;;;;;;;5.27;2.10;;;1.80;1.00;;;;;;5016577;28;20820;-76
2023/03/16 02:03:09;;;;;;;3.03;1.67;;;1.90;1.00;;;;;;5016014;28;20434;-78
2023/03/16 02:05:47;;;;;;;4.47;2.77;;;1.90;1.00;;;;;;5016441;28;20301;-78
2023/03/16 02:08:13;;;;;;;7.20;2.33;;;1.90;1.00;;;;;;5015513;28;20471;-78
2023/03/16 02:10:39;;;;;;;3.33;2.03;;;1.90;1.00;;;;;;5016195;28;20425;-79
2023/03/16 02:13:05;;;;;;;4.50;2.20;;;1.80;1.00;;;;;;5015402;28;20175;-81
2023/03/16 02:15:31;;;;;;;3.33;1.60;;;1.90;1.00;;;;;;5011638;28;20538;-79
2023/03/16 02:17:59;;;;;;;5.40;2.07;;;1.90;1.00;;;;;;4995035;28;20177;-80
2023/03/16 02:20:52;;;;;;;2.60;1.53;;;1.90;1.00;;;;;;4996563;28;20549;-80
2023/03/16 02:23:22;;;;;;;3.60;1.50;;;1.90;1.00;;;;;;5028153;28;20433;-81
2023/03/16 02:26:21;;;;;;;7.87;2.80;;;2.00;1.00;;;;;;4995575;28;20489;-81
2023/03/16 02:29:02;;;;;;;4.97;2.30;;;1.90;1.00;;;;;;5012982;28;20851;-83
2023/03/16 02:31:28;;;;;;;2.90;2.70;;;2.00;1.00;;;;;;5001403;28;20906;-82
2023/03/16 02:33:54;;;;;;;3.13;1.57;;;2.00;1.00;;;;;;5015332;28;20438;-81
2023/03/16 02:36:19;;;;;;;3.80;1.40;;;2.00;1.00;;;;;;5048133;28;20233;-82
2023/03/16 02:38:45;;;;;;;2.27;1.07;;;2.00;1.00;;;;;;5016011;28;20417;-79
2023/03/16 02:41:14;;;;;;;2.90;1.80;;;2.00;1.00;;;;;;5016133;28;20186;-80
2023/03/16 02:43:47;;;;;;;4.90;2.83;;;2.00;1.00;;;;;;5015846;28;22083;-81
2023/03/16 02:46:14;;;;;;;6.10;2.03;;;2.00;1.00;;;;;;5015000;28;20414;-85
2023/03/16 02:48:44;;;;;;;3.90;1.97;;;2.00;1.00;;;;;;5014371;28;20861;-79
2023/03/16 02:51:10;;;;;;;1.60;1.50;;;2.00;1.00;;;;;;5014632;28;20412;-79
2023/03/16 02:53:35;;;;;;;3.10;2.80;;;2.00;1.00;;;;;;5014268;28;20938;-80
2023/03/16 02:56:01;;;;;;;4.37;1.90;;;2.00;1.00;;;;;;5014525;28;20180;-78
2023/03/16 02:58:32;;;;;;;5.33;1.70;;;2.00;1.00;;;;;;5015824;28;20655;-79
2023/03/16 03:00:58;;;;;;;4.33;1.90;;;2.00;1.00;;;;;;5015707;28;20417;-82
2023/03/16 03:03:23;;;;;;;10.67;1.70;;;1.90;1.00;;;;;;5013951;28;20430;-81
2023/03/16 03:05:49;;;;;;;2.70;1.80;;;2.00;1.00;;;;;;5015485;28;20436;-79
2023/03/16 03:08:15;;;;;;;4.40;1.37;;;1.90;1.00;;;;;;5014252;28;20628;-80
2023/03/16 03:10:40;;;;;;;4.10;1.60;;;1.90;1.00;;;;;;5047434;28;20183;-83
2023/03/16 03:13:09;;;;;;;3.87;1.50;;;1.90;1.00;;;;;;5015389;28;21064;-80
2023/03/16 03:15:34;;;;;;;3.90;1.87;;;1.90;1.00;;;;;;5014175;28;20186;-79
2023/03/16 03:18:09;;;;;;;5.40;2.07;;;1.80;1.00;;;;;;5013745;28;20426;-79
2023/03/16 03:20:37;;;;;;;5.83;2.40;;;1.90;1.00;;;;;;5013835;28;20565;-79
2023/03/16 03:23:04;;;;;;;6.80;2.10;;;1.90;1.00;;;;;;5013968;28;20430;-79
2023/03/16 03:25:33;;;;;;;4.73;2.20;;;1.90;1.00;;;;;;5015203;28;20509;-79
2023/03/16 03:28:00;;;;;;;3.07;2.30;;;1.90;1.00;;;;;;5014034;28;20472;-80
2023/03/16 03:30:27;;;;;;;4.30;1.77;;;1.90;1.00;;;;;;5015241;28;20418;-81
2023/03/16 03:32:53;;;;;;;7.63;2.10;;;1.80;1.00;;;;;;5013505;28;20509;-81
2023/03/16 03:35:20;;;;;;;5.97;2.17;;;1.90;1.00;;;;;;5013717;28;20963;-79
2023/03/16 03:37:45;;;;;;;3.50;1.73;;;1.90;1.00;;;;;;5013701;28;20794;-79
2023/03/16 03:40:15;;;;;;;3.27;2.10;;;1.90;1.00;;;;;;5046773;28;20428;-79
2023/03/16 03:42:41;;;;;;;3.53;1.67;;;1.90;1.00;;;;;;4973330;28;20195;-80
2023/03/16 03:45:08;;;;;;;3.70;1.80;;;1.80;1.00;;;;;;5013584;28;21040;-80
2023/03/16 03:47:34;;;;;;;2.90;1.40;;;1.80;1.00;;;;;;5012968;28;20422;-80
2023/03/16 03:49:59;;;;;;;3.50;1.80;;;1.80;1.00;;;;;;5014848;28;20421;-80
2023/03/16 03:52:26;;;;;;;4.00;1.50;;;1.80;1.00;;;;;;5013300;28;20434;-80
2023/03/16 03:54:52;;;;;;;6.20;2.03;;;1.70;1.00;;;;;;5013564;28;20175;-80
2023/03/16 03:57:17;;;;;;;8.80;2.27;;;1.70;1.00;;;;;;5014754;28;20417;-80
2023/03/16 03:59:45;;;;;;;3.83;2.00;;;1.70;1.00;;;;;;5014680;28;20278;-80
2023/03/16 04:02:12;;;;;;;3.07;2.13;;;1.60;1.00;;;;;;5014295;28;20547;-80
2023/03/16 04:04:39;;;;;;;5.73;2.10;;;1.60;1.00;;;;;;5013683;28;20472;-80
2023/03/16 04:07:05;;;;;;;2.13;1.30;;;1.50;1.00;;;;;;5014549;28;20493;-81
2023/03/16 04:09:33;;;;;;;3.47;1.80;;;1.50;1.00;;;;;;5014524;28;20529;-80
2023/03/16 04:12:04;;;;;;;5.70;2.30;;;1.40;1.00;;;;;;5014419;28;20407;-80
2023/03/16 04:14:29;;;;;;;2.70;2.17;;;1.30;4.10;;;;;;5014350;28;20430;-81
2023/03/16 04:16:55;;;;;;;4.20;1.40;;;1.30;35.90;;;;;;5013934;28;20429;-81
2023/03/16 04:19:23;;;;;;;6.13;2.13;;;1.20;32.20;;;;;;5014097;28;20174;-79
2023/03/16 04:21:50;;;;;;;3.20;1.83;;;1.20;45.00;;;;;;5014334;28;20185;-78
2023/03/16 04:24:16;;;;;;;2.50;2.00;;;1.20;72.60;;;;;;5045895;28;20458;-78
2023/03/16 04:26:46;;;;;;;3.20;1.53;;;1.30;92.00;;;;;;5014143;28;20418;-80
2023/03/16 04:29:16;;;;;;;6.33;2.20;;;1.30;84.30;;;;;;5014068;28;20460;-78
2023/03/16 04:31:43;;;;;;;4.50;1.70;;;1.30;59.20;;;;;;5012501;28;20483;-79
2023/03/16 04:34:10;;;;;;;2.80;1.70;;;1.40;75.30;;;;;;5014025;28;20407;-78
2023/03/16 04:36:37;;;;;;;3.67;1.10;;;1.40;82.20;;;;;;5013978;28;20409;-79
2023/03/16 04:39:03;;;;;;;2.70;1.83;;;1.40;57.10;;;;;;5013864;28;20797;-79
2023/03/16 04:41:29;;;;;;;1.73;0.60;;;1.30;19.40;;;;;;5013797;28;20456;-78
2023/03/16 04:43:56;;;;;;;3.63;2.47;;;1.10;21.90;;;;;;5013795;28;20460;-77
2023/03/16 04:46:22;;;;;;;4.60;1.77;;;1.00;93.30;;;;;;5013439;28;20238;-77
2023/03/16 04:48:47;;;;;;;2.17;1.37;;;1.00;96.90;;;;;;5013816;28;20449;-78
2023/03/16 04:51:14;;;;;;;3.27;1.50;;;1.00;99.90;;;;;;5013758;28;20770;-78
2023/03/16 04:53:39;;;;;;;6.97;2.40;;;1.00;99.90;;;;;;5013682;28;20255;-77
2023/03/16 04:56:06;;;;;;;4.40;1.50;;;1.00;99.90;;;;;;5028839;28;20530;-78
2023/03/16 04:58:31;;;;;;;3.83;3.20;;;1.00;99.90;;;;;;5013589;28;20174;-78
2023/03/16 05:00:57;;;;;;;5.80;2.10;;;1.10;99.90;;;;;;5014138;28;20428;-78
2023/03/16 05:03:22;;;;;;;3.50;1.60;;;1.20;97.80;;;;;;5045042;28;20174;-79
2023/03/16 05:05:49;;;;;;;6.00;2.13;;;0.90;84.20;;;;;;5045215;28;20642;-78
2023/03/16 05:08:15;;;;;;;4.07;1.57;;;0.80;91.60;;;;;;5013432;28;20198;-78
2023/03/16 05:10:41;;;;;;;4.60;1.80;;;0.70;99.90;;;;;;5013367;28;20417;-78
2023/03/16 05:13:07;;;;;;;3.83;2.03;;;0.70;99.90;;;;;;5013372;28;20247;-78
2023/03/16 05:15:32;;;;;;;4.53;1.20;;;0.70;99.90;;;;;;5013242;28;20426;-78
2023/03/16 05:17:58;;;;;;;3.33;1.67;;;0.70;99.90;;;;;;5044856;28;20596;-78
2023/03/16 05:20:24;;;;;;;1.80;1.17;;;0.70;99.90;;;;;;5013161;28;20511;-78
2023/03/16 05:22:50;;;;;;;8.70;2.60;;;0.70;99.90;;;;;;5013286;28;20652;-78
2023/03/16 05:25:18;;;;;;;2.40;1.53;;;0.70;99.90;;;;;;5013148;28;20325;-80
2023/03/16 05:27:46;;;;;;;2.27;1.63;;;0.70;99.90;;;;;;5013216;28;20410;-80
2023/03/16 05:30:13;;;;;;;5.47;2.23;;;0.60;99.90;;;;;;5013232;28;20465;-81
2023/03/16 05:32:38;;;;;;;2.50;1.80;;;0.60;99.90;;;;;;5011487;28;20421;-81
2023/03/16 05:35:06;;;;;;;3.17;2.13;;;0.50;99.90;;;;;;5009417;28;20429;-80
2023/03/16 05:37:32;;;;;;;4.40;2.10;;;0.60;99.90;;;;;;4961122;28;20181;-80
2023/03/16 05:39:58;;;;;;;1.87;1.47;;;0.60;99.90;;;;;;4999963;28;20449;-81
2023/03/16 05:42:25;;;;;;;1.43;1.30;;;0.60;99.90;;;;;;5000150;28;20434;-80
2023/03/16 05:44:52;;;;;;;6.47;1.17;;;0.50;99.90;;;;;;5001962;28;20301;-80
2023/03/16 05:47:21;;;;;;;2.30;1.77;;;0.60;99.90;;;;;;5024718;28;20776;-81
2023/03/16 05:49:46;;;;;;;2.80;1.50;;;0.70;99.90;;;;;;4993277;28;20450;-79
2023/03/16 05:52:12;;;;;;;4.97;1.90;;;0.80;99.90;;;;;;5024931;28;20770;-78
2023/03/16 05:54:38;;;;;;;3.87;1.83;;;0.80;99.90;;;;;;4992156;28;20443;-78
2023/03/16 05:57:05;;;;;;;6.70;2.70;;;1.00;99.90;;;;;;4993302;28;20477;-79
2023/03/16 05:59:31;;;;;;;3.27;2.23;;;1.10;99.90;;;;;;4993253;28;20427;-78
2023/03/16 06:01:57;;;;;;;2.67;1.77;;;1.10;57.80;;;;;;4992749;28;20985;-79
2023/03/16 06:04:22;;;;;;;2.43;1.93;;;1.10;1.00;;;;;;4993114;28;20206;-79
2023/03/16 06:06:48;;;;;;;5.37;2.03;;;1.10;19.40;;;;;;4993164;28;20175;-80
2023/03/16 06:09:13;;;;;;;2.30;1.53;;;1.10;47.00;;;;;;4993089;28;20184;-79
2023/03/16 06:11:38;;;;;;;2.43;1.70;;;1.20;24.30;;;;;;4993156;28;20504;-82
2023/03/16 06:14:04;;;;;;;4.43;1.80;;;1.30;15.30;;;;;;4993113;28;20187;-83
2023/03/16 06:16:30;;;;;;;3.70;2.00;;;1.40;1.00;;;;;;5024288;28;20590;-82
2023/03/16 06:18:55;;;;;;;3.43;2.80;;;1.40;1.00;;;;;;4993015;28;20179;-83
2023/03/16 06:21:22;;;;;;;3.50;1.83;;;1.40;1.00;;;;;;4992954;28;20346;-83
2023/03/16 06:23:47;;;;;;;3.43;1.33;;;1.50;1.00;;;;;;4992776;28;20171;-83
2023/03/16 06:26:13;;;;;;;3.13;2.50;;;1.50;1.00;;;;;;4992890;28;20440;-83
2023/03/16 06:28:39;;;;;;;2.73;1.43;;;1.60;1.00;;;;;;4994897;28;20651;-83
2023/03/16 06:31:04;;;;;;;2.80;2.03;;;1.50;1.00;;;;;;4996171;28;20569;-83
2023/03/16 06:33:30;;;;;;;4.33;2.40;;;1.70;1.00;;;;;;4996406;28;20168;-82
2023/03/16 06:35:55;;;;;;;6.60;1.70;;;1.70;1.00;;;;;;4963201;28;20205;-83
2023/03/16 06:38:21;;;;;;;2.40;1.30;;;1.70;1.00;;;;;;5009787;28;20555;-82
2023/03/16 06:40:51;;;;;;;1.80;1.33;;;1.90;1.00;;;;;;4996325;28;20531;-82
2023/03/16 06:43:17;;;;;;;7.70;2.70;;;2.10;1.00;;;;;;4996434;28;20270;-82
2023/03/16 06:45:42;;;;;;;3.77;1.20;;;2.30;1.00;;;;;;4996205;28;20571;-81
2023/03/16 06:48:08;;;;;;;2.70;1.80;;;2.40;1.00;;;;;;4995767;28;20181;-80
2023/03/16 06:50:34;;;;;;;2.83;1.23;;;2.70;1.00;;;;;;4996090;28;20228;-82
2023/03/16 06:53:00;;;;;;;3.10;2.20;;;3.00;99.90;;;;;;4996052;28;20420;-80
2023/03/16 06:55:25;;;;;;;1.70;1.37;;;3.20;1.00;;;;;;4996093;28;20434;-81
2023/03/16 06:57:51;;;;;;;1.77;1.57;;;3.40;1.00;;;;;;5005302;28;20187;-80
2023/03/16 07:00:16;;;;;;;1.70;1.60;;;3.50;1.00;;;;;;5015399;28;20273;-80
2023/03/16 07:02:42;;;;;;;1.77;1.10;;;3.60;1.00;;;;;;5015228;28;20185;-80
2023/03/16 07:05:12;;;;;;;1.63;0.73;;;3.50;99.90;;;;;;5015340;28;20248;-81
2023/03/16 07:07:41;;;;;;;2.53;1.60;;;3.50;1.00;;;;;;5015545;28;20206;-80
2023/03/16 07:10:11;;;;;;;6.33;2.20;;;3.40;99.90;;;;;;5015608;28;20421;-81
2023/03/16 07:12:37;;;;;;;2.63;1.33;;;3.50;99.90;;;;;;5014214;28;20842;-80
2023/03/16 07:15:03;;;;;;;12.70;1.60;;;3.60;99.90;;;;;;5015369;28;20414;-80
2023/03/16 07:17:28;;;;;;;3.20;1.40;;;3.60;1.00;;;;;;5014874;28;20163;-80
2023/03/16 07:19:54;;;;;;;3.77;1.40;;;4.00;99.90;;;;;;5015083;28;20480;-80
2023/03/16 07:22:20;;;;;;;2.50;1.43;;;4.30;1.00;;;;;;5014752;28;20314;-80
2023/03/16 07:24:56;;;;;;;2.80;1.33;;;4.60;1.00;;;;;;5015197;28;20202;-81
2023/03/16 07:27:22;;;;;;;2.53;1.47;;;5.00;99.90;;;;;;5014004;28;20480;-81
2023/03/16 07:29:48;;;;;;;1.20;1.10;;;5.30;1.00;;;;;;5015127;28;20433;-81
2023/03/16 07:32:14;;;;;;;1.80;0.83;;;5.60;1.00;;;;;;5014971;28;20406;-82
2023/03/16 07:34:40;;;;;;;2.07;1.23;;;6.10;1.00;;;;;;5015111;28;20946;-82
2023/03/16 07:37:07;;;;;;;3.10;1.37;;;6.50;99.90;;;;;;5014935;28;20170;-82
2023/03/16 07:39:33;;;;;;;5.87;1.43;;;6.80;99.90;;;;;;4973749;28;20480;-81
2023/03/16 07:42:00;;;;;;;4.77;1.60;;;7.00;99.90;;;;;;5013688;28;20473;-79
2023/03/16 07:44:30;;;;;;;2.97;0.90;;;7.00;99.90;;;;;;5013535;28;20470;-80
2023/03/16 07:46:55;;;;;;;7.23;1.30;;;7.00;99.90;;;;;;5014435;28;20439;-84
2023/03/16 07:49:21;;;;;;;2.70;0.90;;;7.00;99.90;;;;;;5014891;28;20396;-84
2023/03/16 07:51:47;;;;;;;4.60;1.80;;;6.90;99.90;;;;;;5014657;28;20621;-83
2023/03/16 07:54:13;;;;;;;3.43;1.17;;;7.00;99.90;;;;;;5014705;28;20181;-84
2023/03/16 07:56:38;;;;;;;3.27;1.67;;;7.20;99.90;;;;;;5013419;28;20429;-84
2023/03/16 07:59:04;;;;;;;3.80;1.47;;;7.50;99.90;;;;;;5014727;28;20178;-84
2023/03/16 08:01:29;;;;;;;1.63;1.10;;;7.70;99.90;;;;;;5014291;28;20185;-84
2023/03/16 08:03:55;;;;;;;2.90;1.40;;;7.90;99.90;;;;;;5014529;28;20224;-84
2023/03/16 08:06:20;;;;;;;5.40;1.13;;;8.30;99.90;;;;;;5014493;28;20185;-84
2023/03/16 08:08:46;;;;;;;3.87;0.97;;;8.40;99.90;;;;;;5014390;28;20270;-84
2023/03/16 08:11:13;;;;;;;2.47;1.03;;;8.70;99.90;;;;;;5014413;28;20206;-84
2023/03/16 08:13:39;;;;;;;3.97;1.13;;;9.40;99.90;;;;;;5014418;28;20477;-84
2023/03/16 08:16:09;;;;;;;4.83;0.90;;;10.20;99.90;;;;;;5013964;28;20410;-84
2023/03/16 08:18:35;;;;;;;4.27;0.70;;;10.80;99.90;;;;;;5014338;28;20428;-85
2023/03/16 08:21:01;;;;;;;3.37;1.40;;;11.30;75.10;;;;;;5014050;28;20457;-84
2023/03/16 08:23:28;;;;;;;2.70;1.10;;;11.20;52.80;;;;;;5013969;28;20848;-84
2023/03/16 08:25:55;;;;;;;5.13;1.53;;;10.70;43.30;;;;;;5013273;28;20216;-84
2023/03/16 08:28:20;;;;;;;4.67;1.23;;;10.40;38.40;;;;;;5013287;28;20935;-84
2023/03/16 08:30:49;;;;;;;5.33;0.90;;;10.30;35.70;;;;;;5012566;28;20435;-84
2023/03/16 08:33:16;;;;;;;3.17;0.50;;;10.30;32.20;;;;;;5013571;28;20195;-84
2023/03/16 08:35:43;;;;;;;2.60;0.87;;;10.50;27.70;;;;;;5009682;28;20422;-83
2023/03/16 08:38:09;;;;;;;5.03;1.23;;;10.40;27.30;;;;;;5014139;28;20478;-84
2023/03/16 08:40:35;;;;;;;1.53;0.40;;;10.50;27.80;;;;;;5014078;28;20962;-85
2023/03/16 08:43:01;;;;;;;2.80;1.93;;;10.80;27.30;;;;;;4973346;28;20535;-86
2023/03/16 08:45:27;;;;;;;2.37;1.30;;;11.40;27.00;;;;;;5013426;28;20262;-85
2023/03/16 08:47:53;;;;;;;4.93;1.23;;;11.60;24.40;;;;;;5013674;28;20782;-85
2023/03/16 08:50:19;;;;;;;4.43;1.00;;;11.60;18.40;;;;;;5013129;28;20426;-85
2023/03/16 08:52:45;;;;;;;2.30;1.07;;;11.70;16.40;;;;;;5013084;28;20179;-87
2023/03/16 08:55:12;;;;;;;3.53;0.80;;;11.90;18.20;;;;;;5045622;28;20419;-86
2023/03/16 08:57:38;;;;;;;2.40;0.80;;;12.10;14.00;;;;;;5013696;28;20175;-85
2023/03/16 09:00:12;;;;;;;2.43;0.73;;;11.90;11.40;;;;;;5013587;28;20443;-84
2023/03/16 09:02:41;;;;;;;3.47;1.30;;;12.00;9.80;;;;;;5013205;28;20410;-84
2023/03/16 09:05:13;;;;;;;1.10;0.37;;;12.20;10.30;;;;;;5013513;28;20476;-82
2023/03/16 09:07:39;;;;;;;2.00;0.80;;;12.50;10.20;;;;;;5013705;28;20428;-84
2023/03/16 09:10:06;;;;;;;8.63;1.10;;;12.90;10.20;;;;;;5012186;28;20430;-83
2023/03/16 09:12:35;;;;;;;4.13;0.50;;;13.10;7.70;;;;;;5013262;28;20168;-84
2023/03/16 09:15:01;;;;;;;3.23;0.93;;;13.30;6.70;;;;;;5013078;28;20423;-84
2023/03/16 09:17:27;;;;;;;1.30;0.70;;;13.40;3.00;;;;;;5012579;28;20420;-84
2023/03/16 09:19:53;;;;;;;2.43;0.67;;;13.60;2.30;;;;;;5013182;28;21022;-84
2023/03/16 09:22:19;;;;;;;2.63;0.90;;;13.70;1.00;;;;;;5013367;28;20419;-84
2023/03/16 09:24:44;;;;;;;1.83;0.43;;;13.90;1.00;;;;;;5013052;28;20543;-84
2023/03/16 09:27:10;;;;;;;4.30;1.00;;;14.20;1.00;;;;;;5013104;28;20425;-84
2023/03/16 09:29:36;;;;;;;2.20;0.60;;;14.30;1.00;;;;;;5012410;28;20182;-84
2023/03/16 09:32:02;;;;;;;2.47;0.73;;;14.50;1.00;;;;;;5012227;28;20412;-84
2023/03/16 09:34:28;;;;;;;3.50;0.53;;;14.00;1.00;;;;;;5012624;28;20173;-83
2023/03/16 09:36:54;;;;;;;3.10;0.63;;;13.40;1.00;;;;;;5044098;28;20412;-83
2023/03/16 09:39:21;;;;;;;1.87;0.83;;;13.30;1.00;;;;;;5013087;28;20172;-84
2023/03/16 09:42:03;;;;;;;1.70;0.53;;;13.40;1.00;;;;;;5003475;28;20188;-84
2023/03/16 09:45:06;;;;;;;1.80;0.50;;;13.60;1.00;;;;;;4993760;28;20482;-83
2023/03/16 09:47:34;;;;;;;3.50;0.80;;;13.60;1.00;;;;;;5003323;28;20423;-83
2023/03/16 09:50:05;;;;;;;2.03;0.77;;;13.70;1.00;;;;;;4991729;28;20510;-84
2023/03/16 09:53:24;;;;;;;4.53;0.70;;;14.10;1.00;;;;;;4992788;28;20412;-84
2023/03/16 09:55:57;;;;;;;2.07;0.20;;;14.60;1.00;;;;;;4994985;28;20471;-85
2023/03/16 09:58:23;;;;;;;1.90;0.47;;;15.20;1.00;;;;;;5011190;28;20434;-85
2023/03/16 10:01:08;;;;;;;3.13;0.50;;;15.50;1.00;;;;;;5012053;28;20939;-84
2023/03/16 10:03:57;;;;;;;3.20;0.67;;;15.60;1.00;;;;;;5013962;28;20473;-84
2023/03/16 10:06:25;;;;;;;1.80;0.80;;;15.60;1.00;;;;;;5010677;28;20439;-84
2023/03/16 10:09:38;;;;;;;1.80;0.47;;;15.60;1.00;;;;;;4996305;28;20485;-84
2023/03/16 10:12:06;;;;;;;2.07;0.43;;;15.80;1.00;;;;;;5014425;28;20422;-82
2023/03/16 10:14:50;;;;;;;3.80;0.83;;;16.30;1.00;;;;;;5014487;28;20470;-82
2023/03/16 10:17:41;;;;;;;4.33;0.53;;;16.40;1.00;;;;;;4994925;28;20418;-82
2023/03/16 10:20:22;;;;;;;3.90;0.60;;;16.00;1.00;;;;;;4995735;28;20890;-82
2023/03/16 10:22:58;;;;;;;2.93;0.30;;;15.40;1.00;;;;;;4995650;28;20783;-84
2023/03/16 10:25:51;;;;;;;1.73;0.30;;;15.20;1.00;;;;;;5010849;28;20484;-84
2023/03/16 10:28:37;;;;;;;3.20;0.30;;;14.80;1.00;;;;;;4995526;28;20425;-84
2023/03/16 10:31:03;;;;;;;1.20;0.27;;;14.70;1.00;;;;;;4996758;28;20518;-84
2023/03/16 10:33:38;;;;;;;1.47;0.20;;;14.40;1.00;;;;;;4996767;28;20421;-84
2023/03/16 10:36:34;;;;;;;2.77;0.57;;;14.40;1.00;;;;;;5011722;28;20474;-85
2023/03/16 10:39:12;;;;;;;3.17;0.80;;;14.70;1.00;;;;;;4996812;28;20449;-84
2023/03/16 10:41:44;;;;;;;1.23;0.30;;;15.00;1.00;;;;;;4995120;28;20909;-84
2023/03/16 10:47:28;;;;;;;1.90;0.50;;;15.20;1.00;;;;;;4995995;28;20431;-85
2023/03/16 10:50:00;;;;;;;1.70;0.37;;;15.00;1.00;;;;;;4996388;28;20423;-85
2023/03/16 10:52:54;;;;;;;2.60;0.30;;;15.20;1.00;;;;;;5011391;28;20511;-85
2023/03/16 10:56:02;;;;;;;1.73;0.30;;;14.80;1.00;;;;;;4994082;28;20800;-84
2023/03/16 10:58:53;;;;;;;2.40;0.10;;;14.20;1.00;;;;;;4996214;28;20429;-84
2023/03/16 11:01:44;;;;;;;2.60;0.30;;;13.90;1.00;;;;;;4995688;28;20489;-84
2023/03/16 11:04:16;;;;;;;2.43;0.30;;;13.40;1.00;;;;;;4994849;28;20499;-84
2023/03/16 11:06:54;;;;;;;1.33;0.30;;;13.50;1.00;;;;;;5027412;28;20482;-84
2023/03/16 11:09:44;;;;;;;1.90;0.40;;;13.40;1.00;;;;;;5011071;28;20437;-83
2023/03/16 11:12:38;;;;;;;1.50;0.40;;;13.90;1.00;;;;;;4994752;28;20454;-85
2023/03/16 11:15:24;;;;;;;1.47;0.20;;;14.10;1.00;;;;;;4994046;28;20482;-83
2023/03/16 11:17:59;;;;;;;0.83;0.20;;;14.30;1.00;;;;;;4996031;28;20784;-84
2023/03/16 11:20:32;;;;;;;1.30;0.30;;;14.60;1.00;;;;;;5010676;28;20484;-85
2023/03/16 11:23:11;;;;;;;2.20;0.20;;;14.80;1.00;;;;;;4996569;28;20439;-84
2023/03/16 11:26:18;;;;;;;0.90;0.30;;;14.70;1.00;;;;;;4995603;28;20476;-83
2023/03/16 11:29:44;;;;;;;2.30;0.30;;;14.40;1.00;;;;;;5004636;28;20958;-84
2023/03/16 11:32:41;;;;;;;1.13;0.30;;;14.40;1.00;;;;;;4995302;28;20556;-84
2023/03/16 11:35:26;;;;;;;0.80;0.33;;;14.70;1.00;;;;;;5010692;28;20430;-84
2023/03/16 11:38:32;;;;;;;2.53;0.40;;;14.50;1.00;;;;;;4995420;28;20925;-84
2023/03/16 11:41:14;;;;;;;3.30;0.40;;;14.50;1.00;;;;;;4993986;28;20514;-82
2023/03/16 11:43:57;;;;;;;3.60;0.40;;;14.70;1.00;;;;;;5011157;28;20488;-85
2023/03/16 11:46:52;;;;;;;1.43;0.40;;;15.00;1.00;;;;;;4993791;28;20468;-84
2023/03/16 11:49:43;;;;;;;0.90;0.20;;;15.40;1.00;;;;;;4994061;28;20423;-85
2023/03/16 11:52:42;;;;;;;1.17;0.27;;;15.80;1.00;;;;;;4995713;28;20798;-84
2023/03/16 11:55:47;;;;;;;0.50;0.30;;;15.50;1.00;;;;;;4995166;28;20420;-85
2023/03/16 11:58:30;;;;;;;1.07;0.30;;;15.70;1.00;;;;;;4997133;28;20428;-85
2023/03/16 12:01:46;;;;;;;1.10;0.20;;;15.60;1.00;;;;;;4994561;28;20500;-84
2023/03/16 12:05:01;;;;;;;1.50;0.30;;;16.00;1.00;;;;;;4994859;28;20504;-85
2023/03/16 12:07:54;;;;;;;0.97;0.30;;;15.80;1.00;;;;;;4995077;28;20428;-86
2023/03/16 12:10:51;;;;;;;1.57;0.17;;;15.30;1.00;;;;;;4993627;28;20437;-84
2023/03/16 12:14:01;;;;;;;1.00;0.40;;;14.80;1.00;;;;;;4993653;28;20965;-84
2023/03/16 12:17:09;;;;;;;1.70;0.40;;;14.60;1.00;;;;;;4996609;28;20513;-85
2023/03/16 12:20:38;;;;;;;5.00;0.30;;;14.80;1.00;;;;;;4994435;28;20466;-84
2023/03/16 12:23:41;;;;;;;2.00;0.30;;;14.70;1.00;;;;;;4995295;28;20913;-84
2023/03/16 12:26:39;;;;;;;2.00;0.37;;;15.00;1.00;;;;;;4995155;28;20497;-84
2023/03/16 12:29:37;;;;;;;0.83;0.30;;;15.30;1.00;;;;;;5009766;28;20440;-84
2023/03/16 12:32:28;;;;;;;2.90;0.60;;;15.50;1.00;;;;;;4993041;28;20501;-85
2023/03/16 12:35:27;;;;;;;1.00;0.20;;;15.50;1.00;;;;;;4996449;28;20457;-84
2023/03/16 12:38:31;;;;;;;2.67;0.43;;;15.40;1.00;;;;;;4994378;28;20410;-84
2023/03/16 12:41:35;;;;;;;1.70;0.40;;;14.80;1.00;;;;;;5009377;28;20923;-84
2023/03/16 12:44:14;;;;;;;1.90;0.30;;;15.00;1.00;;;;;;4994230;28;20472;-85
2023/03/16 12:47:18;;;;;;;2.00;0.30;;;15.80;1.00;;;;;;4993897;28;20544;-84
2023/03/16 12:49:45;;;;;;;1.00;0.50;;;15.70;1.00;;;;;;4994243;28;20434;-84
2023/03/16 12:52:13;;;;;;;1.37;0.40;;;15.00;1.00;;;;;;4992695;28;20461;-83
2023/03/16 12:55:27;;;;;;;1.03;0.30;;;14.80;1.00;;;;;;4992762;28;20803;-85
2023/03/16 12:58:21;;;;;;;0.80;0.40;;;15.10;1.00;;;;;;4994339;28;20433;-85
2023/03/16 13:01:10;;;;;;;0.97;0.53;;;15.10;1.00;;;;;;5008801;28;20425;-84
2023/03/16 13:03:40;;;;;;;1.13;0.20;;;14.90;1.00;;;;;;4994054;28;20413;-84
2023/03/16 13:06:06;;;;;;;0.93;0.33;;;14.50;1.00;;;;;;5009077;28;20471;-83
2023/03/16 13:08:50;;;;;;;0.80;0.20;;;14.30;1.00;;;;;;4993920;28;20408;-84
2023/03/16 13:11:49;;;;;;;1.10;0.30;;;13.80;1.00;;;;;;4993838;28;20419;-84
2023/03/16 13:15:01;;;;;;;2.10;0.30;;;13.50;1.00;;;;;;4993903;28;20498;-85
2023/03/16 13:17:33;;;;;;;1.13;0.20;;;13.50;1.00;;;;;;4993477;28;20427;-83
2023/03/16 13:20:22;;;;;;;0.73;0.30;;;13.20;1.00;;;;;;4993515;28;20799;-84
2023/03/16 13:23:09;;;;;;;0.87;0.20;;;13.10;1.00;;;;;;5008791;28;20778;-83
2023/03/16 13:25:41;;;;;;;1.17;0.40;;;12.80;1.00;;;;;;4991880;28;20962;-83
2023/03/16 13:28:16;;;;;;;1.00;0.20;;;12.80;1.00;;;;;;4992481;28;20426;-83
2023/03/16 13:30:53;;;;;;;1.10;0.60;;;12.90;1.00;;;;;;4993282;28;20407;-83
2023/03/16 13:33:25;;;;;;;1.00;0.30;;;12.70;1.00;;;;;;4993592;28;20418;-83